sensor_id;sensor_type;location;lat;lon;timestamp;pressure;altitude;pressure_sealevel;temperature;humidity
13387;BME280;6763;48.524;9.044;2022-08-07T00:00:27;98322.81;;;20.73;39.64
13387;BME280;6763;48.524;9.044;2022-08-07T00:02:52;98327.41;;;20.70;39.69
13387;BME280;6763;48.524;9.044;2022-08-07T00:05:20;98317.03;;;20.67;39.53
13387;BME280;6763;48.524;9.044;2022-08-07T00:07:46;98316.28;;;20.65;39.62
13387;BME280;6763;48.524;9.044;2022-08-07T00:10:11;98318.03;;;20.64;39.69
13387;BME280;6763;48.524;9.044;2022-08-07T00:12:37;98310.16;;;20.64;39.78
13387;BME280;6763;48.524;9.044;2022-08-07T00:15:02;98316.28;;;20.65;39.80
13387;BME280;6763;48.524;9.044;2022-08-07T00:17:28;98320.66;;;20.64;40.18
13387;BME280;6763;48.524;9.044;2022-08-07T00:19:53;98320.81;;;20.61;40.24
13387;BME280;6763;48.524;9.044;2022-08-07T00:22:19;98311.38;;;20.57;40.50
13387;BME280;6763;48.524;9.044;2022-08-07T00:24:44;98328.09;;;20.56;40.27
13387;BME280;6763;48.524;9.044;2022-08-07T00:27:09;98325.69;;;20.52;41.14
13387;BME280;6763;48.524;9.044;2022-08-07T00:29:35;98323.50;;;20.42;40.98
13387;BME280;6763;48.524;9.044;2022-08-07T00:32:00;98329.25;;;20.33;40.88
13387;BME280;6763;48.524;9.044;2022-08-07T00:34:27;98329.72;;;20.23;41.06
13387;BME280;6763;48.524;9.044;2022-08-07T00:36:54;98332.63;;;20.17;40.99
13387;BME280;6763;48.524;9.044;2022-08-07T00:39:20;98335.56;;;20.11;41.11
13387;BME280;6763;48.524;9.044;2022-08-07T00:41:51;98326.03;;;20.08;41.24
13387;BME280;6763;48.524;9.044;2022-08-07T00:44:16;98339.31;;;20.05;41.14
13387;BME280;6763;48.524;9.044;2022-08-07T00:46:42;98337.56;;;20.06;41.25
13387;BME280;6763;48.524;9.044;2022-08-07T00:49:07;98317.47;;;20.05;41.67
13387;BME280;6763;48.524;9.044;2022-08-07T00:51:34;98314.66;;;20.08;41.63
13387;BME280;6763;48.524;9.044;2022-08-07T00:53:59;98319.78;;;20.11;41.65
13387;BME280;6763;48.524;9.044;2022-08-07T00:56:25;98324.13;;;20.12;41.62
13387;BME280;6763;48.524;9.044;2022-08-07T00:58:50;98315.47;;;20.10;41.51
13387;BME280;6763;48.524;9.044;2022-08-07T01:01:17;98314.84;;;20.05;41.48
13387;BME280;6763;48.524;9.044;2022-08-07T01:03:44;98310.63;;;20.01;41.82
13387;BME280;6763;48.524;9.044;2022-08-07T01:06:10;98308.34;;;19.95;42.03
13387;BME280;6763;48.524;9.044;2022-08-07T01:08:35;98306.03;;;19.87;41.99
13387;BME280;6763;48.524;9.044;2022-08-07T01:11:01;98301.22;;;19.78;42.03
13387;BME280;6763;48.524;9.044;2022-08-07T01:13:27;98299.66;;;19.74;42.19
13387;BME280;6763;48.524;9.044;2022-08-07T01:15:53;98302.47;;;19.71;42.14
13387;BME280;6763;48.524;9.044;2022-08-07T01:18:19;98298.34;;;19.65;42.39
13387;BME280;6763;48.524;9.044;2022-08-07T01:20:49;98298.75;;;19.56;42.43
13387;BME280;6763;48.524;9.044;2022-08-07T01:23:17;98296.56;;;19.47;42.49
13387;BME280;6763;48.524;9.044;2022-08-07T01:25:43;98286.41;;;19.40;42.36
13387;BME280;6763;48.524;9.044;2022-08-07T01:28:09;98292.66;;;19.37;42.15
13387;BME280;6763;48.524;9.044;2022-08-07T01:30:35;98294.53;;;19.34;41.99
13387;BME280;6763;48.524;9.044;2022-08-07T01:33:01;98303.31;;;19.33;41.82
13387;BME280;6763;48.524;9.044;2022-08-07T01:35:27;98305.88;;;19.34;41.62
13387;BME280;6763;48.524;9.044;2022-08-07T01:37:52;98302.22;;;19.38;41.71
13387;BME280;6763;48.524;9.044;2022-08-07T01:40:19;98297.47;;;19.46;41.65
13387;BME280;6763;48.524;9.044;2022-08-07T01:42:45;98290.94;;;19.55;41.73
13387;BME280;6763;48.524;9.044;2022-08-07T01:45:11;98287.19;;;19.60;41.62
13387;BME280;6763;48.524;9.044;2022-08-07T01:47:36;98289.59;;;19.65;41.86
13387;BME280;6763;48.524;9.044;2022-08-07T01:50:03;98285.06;;;19.68;41.94
13387;BME280;6763;48.524;9.044;2022-08-07T01:52:30;98278.97;;;19.68;41.95
13387;BME280;6763;48.524;9.044;2022-08-07T01:54:56;98273.84;;;19.65;41.73
13387;BME280;6763;48.524;9.044;2022-08-07T01:57:27;98275.84;;;19.60;41.81
13387;BME280;6763;48.524;9.044;2022-08-07T02:00:00;98284.13;;;19.51;42.01
13387;BME280;6763;48.524;9.044;2022-08-07T02:02:31;98279.31;;;19.42;42.04
13387;BME280;6763;48.524;9.044;2022-08-07T02:05:12;98279.78;;;19.31;42.24
13387;BME280;6763;48.524;9.044;2022-08-07T02:07:42;98286.22;;;19.24;42.35
13387;BME280;6763;48.524;9.044;2022-08-07T02:10:11;98281.25;;;19.18;42.61
13387;BME280;6763;48.524;9.044;2022-08-07T02:12:40;98280.47;;;19.16;42.65
13387;BME280;6763;48.524;9.044;2022-08-07T02:15:06;98281.69;;;19.09;43.02
13387;BME280;6763;48.524;9.044;2022-08-07T02:17:32;98278.47;;;19.02;42.93
13387;BME280;6763;48.524;9.044;2022-08-07T02:20:01;98276.94;;;18.97;43.45
13387;BME280;6763;48.524;9.044;2022-08-07T02:22:28;98278.94;;;18.92;43.56
13387;BME280;6763;48.524;9.044;2022-08-07T02:24:55;98270.28;;;18.90;43.49
13387;BME280;6763;48.524;9.044;2022-08-07T02:27:22;98276.38;;;18.90;43.39
13387;BME280;6763;48.524;9.044;2022-08-07T02:29:49;98275.66;;;18.87;43.61
13387;BME280;6763;48.524;9.044;2022-08-07T02:32:17;98279.25;;;18.84;43.71
13387;BME280;6763;48.524;9.044;2022-08-07T02:34:44;98282.16;;;18.78;43.70
13387;BME280;6763;48.524;9.044;2022-08-07T02:37:11;98277.88;;;18.76;43.88
13387;BME280;6763;48.524;9.044;2022-08-07T02:39:39;98279.94;;;18.69;43.92
13387;BME280;6763;48.524;9.044;2022-08-07T02:42:05;98280.31;;;18.60;44.28
13387;BME280;6763;48.524;9.044;2022-08-07T02:44:31;98278.97;;;18.51;44.07
13387;BME280;6763;48.524;9.044;2022-08-07T02:46:58;98278.31;;;18.45;44.59
13387;BME280;6763;48.524;9.044;2022-08-07T02:49:24;98281.13;;;18.40;44.59
13387;BME280;6763;48.524;9.044;2022-08-07T02:51:51;98281.22;;;18.39;44.56
13387;BME280;6763;48.524;9.044;2022-08-07T02:54:20;98276.88;;;18.38;44.72
13387;BME280;6763;48.524;9.044;2022-08-07T02:56:48;98278.53;;;18.40;44.85
13387;BME280;6763;48.524;9.044;2022-08-07T02:59:17;98280.16;;;18.43;44.65
13387;BME280;6763;48.524;9.044;2022-08-07T03:01:44;98278.31;;;18.45;45.00
13387;BME280;6763;48.524;9.044;2022-08-07T03:04:12;98280.78;;;18.49;45.22
13387;BME280;6763;48.524;9.044;2022-08-07T03:06:38;98278.75;;;18.56;45.25
13387;BME280;6763;48.524;9.044;2022-08-07T03:09:05;98278.56;;;18.61;45.25
13387;BME280;6763;48.524;9.044;2022-08-07T03:11:33;98281.97;;;18.63;45.18
13387;BME280;6763;48.524;9.044;2022-08-07T03:14:01;98281.97;;;18.63;45.30
13387;BME280;6763;48.524;9.044;2022-08-07T03:16:29;98271.88;;;18.53;45.15
13387;BME280;6763;48.524;9.044;2022-08-07T03:18:55;98276.69;;;18.42;45.04
13387;BME280;6763;48.524;9.044;2022-08-07T03:21:22;98278.75;;;18.34;45.22
13387;BME280;6763;48.524;9.044;2022-08-07T03:23:49;98273.00;;;18.26;45.37
13387;BME280;6763;48.524;9.044;2022-08-07T03:26:17;98272.41;;;18.20;45.42
13387;BME280;6763;48.524;9.044;2022-08-07T03:28:45;98271.75;;;18.15;45.69
13387;BME280;6763;48.524;9.044;2022-08-07T03:31:11;98275.38;;;18.11;45.67
13387;BME280;6763;48.524;9.044;2022-08-07T03:33:50;98266.81;;;18.07;45.74
13387;BME280;6763;48.524;9.044;2022-08-07T03:36:18;98274.72;;;18.06;45.91
13387;BME280;6763;48.524;9.044;2022-08-07T03:38:45;98272.97;;;18.06;45.85
13387;BME280;6763;48.524;9.044;2022-08-07T03:41:12;98274.81;;;18.04;45.49
13387;BME280;6763;48.524;9.044;2022-08-07T03:43:39;98274.81;;;18.04;45.45
13387;BME280;6763;48.524;9.044;2022-08-07T03:46:05;98278.47;;;18.00;45.57
13387;BME280;6763;48.524;9.044;2022-08-07T03:48:32;98278.59;;;17.97;45.62
13387;BME280;6763;48.524;9.044;2022-08-07T03:50:59;98271.75;;;17.93;45.66
13387;BME280;6763;48.524;9.044;2022-08-07T03:53:26;98274.63;;;17.87;45.95
13387;BME280;6763;48.524;9.044;2022-08-07T03:55:52;98278.28;;;17.83;46.00
13387;BME280;6763;48.524;9.044;2022-08-07T03:58:19;98281.88;;;17.80;46.11
13387;BME280;6763;48.524;9.044;2022-08-07T04:00:47;98279.44;;;17.76;46.18
13387;BME280;6763;48.524;9.044;2022-08-07T04:03:14;98291.78;;;17.72;46.04
13387;BME280;6763;48.524;9.044;2022-08-07T04:05:40;98287.53;;;17.70;46.23
13387;BME280;6763;48.524;9.044;2022-08-07T04:08:05;98304.09;;;17.70;46.55
13387;BME280;6763;48.524;9.044;2022-08-07T04:10:33;98299.75;;;17.69;46.61
13387;BME280;6763;48.524;9.044;2022-08-07T04:12:59;98288.47;;;17.69;46.38
13387;BME280;6763;48.524;9.044;2022-08-07T04:15:25;98292.75;;;17.70;46.55
13387;BME280;6763;48.524;9.044;2022-08-07T04:17:51;98292.72;;;17.71;46.61
13387;BME280;6763;48.524;9.044;2022-08-07T04:20:16;98301.34;;;17.73;46.55
13387;BME280;6763;48.524;9.044;2022-08-07T04:22:43;98298.56;;;17.78;46.53
13387;BME280;6763;48.524;9.044;2022-08-07T04:25:09;98294.22;;;17.77;46.49
13387;BME280;6763;48.524;9.044;2022-08-07T04:27:35;98286.50;;;17.74;46.42
13387;BME280;6763;48.524;9.044;2022-08-07T04:30:01;98294.66;;;17.66;46.63
13387;BME280;6763;48.524;9.044;2022-08-07T04:32:26;98296.56;;;17.61;46.31
13387;BME280;6763;48.524;9.044;2022-08-07T04:34:53;98302.06;;;17.55;46.63
13387;BME280;6763;48.524;9.044;2022-08-07T04:37:19;98301.28;;;17.52;46.50
13387;BME280;6763;48.524;9.044;2022-08-07T04:39:45;98301.41;;;17.49;46.71
13387;BME280;6763;48.524;9.044;2022-08-07T04:42:11;98300.56;;;17.48;46.56
13387;BME280;6763;48.524;9.044;2022-08-07T04:44:37;98311.09;;;17.47;46.97
13387;BME280;6763;48.524;9.044;2022-08-07T04:47:09;98308.41;;;17.48;46.67
13387;BME280;6763;48.524;9.044;2022-08-07T04:49:58;98311.59;;;17.56;46.51
13387;BME280;6763;48.524;9.044;2022-08-07T04:52:40;98309.22;;;17.73;46.72
13387;BME280;6763;48.524;9.044;2022-08-07T04:55:22;98307.28;;;18.00;46.35
13387;BME280;6763;48.524;9.044;2022-08-07T05:00:39;98310.41;;;18.51;45.15
13387;BME280;6763;48.524;9.044;2022-08-07T05:03:50;98314.22;;;18.65;44.68
13387;BME280;6763;48.524;9.044;2022-08-07T05:06:24;98306.34;;;18.85;44.46
13387;BME280;6763;48.524;9.044;2022-08-07T05:09:15;98308.97;;;19.05;44.03
13387;BME280;6763;48.524;9.044;2022-08-07T05:11:46;98303.88;;;19.20;43.66
13387;BME280;6763;48.524;9.044;2022-08-07T05:14:19;98298.06;;;19.33;43.41
13387;BME280;6763;48.524;9.044;2022-08-07T05:16:47;98295.72;;;19.47;43.22
13387;BME280;6763;48.524;9.044;2022-08-07T05:19:18;98302.66;;;19.66;42.91
13387;BME280;6763;48.524;9.044;2022-08-07T05:21:52;98301.16;;;19.79;42.43
13387;BME280;6763;48.524;9.044;2022-08-07T05:24:20;98303.28;;;19.90;42.39
13387;BME280;6763;48.524;9.044;2022-08-07T05:26:47;98310.59;;;20.02;42.11
13387;BME280;6763;48.524;9.044;2022-08-07T05:29:16;98311.03;;;20.10;41.90
13387;BME280;6763;48.524;9.044;2022-08-07T05:31:43;98311.13;;;20.09;41.96
13387;BME280;6763;48.524;9.044;2022-08-07T05:34:13;98317.16;;;20.11;42.29
13387;BME280;6763;48.524;9.044;2022-08-07T05:36:42;98325.84;;;20.13;42.51
13387;BME280;6763;48.524;9.044;2022-08-07T05:39:09;98322.22;;;20.15;42.23
13387;BME280;6763;48.524;9.044;2022-08-07T05:41:37;98328.16;;;20.19;42.24
13387;BME280;6763;48.524;9.044;2022-08-07T05:44:03;98328.16;;;20.19;42.33
13387;BME280;6763;48.524;9.044;2022-08-07T05:46:29;98329.91;;;20.18;42.48
13387;BME280;6763;48.524;9.044;2022-08-07T05:48:55;98336.81;;;20.21;42.55
13387;BME280;6763;48.524;9.044;2022-08-07T05:51:21;98326.28;;;20.21;42.57
13387;BME280;6763;48.524;9.044;2022-08-07T05:53:48;98333.06;;;20.26;42.94
13387;BME280;6763;48.524;9.044;2022-08-07T05:56:15;98332.88;;;20.31;42.82
13387;BME280;6763;48.524;9.044;2022-08-07T05:58:42;98334.41;;;20.35;42.86
13387;BME280;6763;48.524;9.044;2022-08-07T06:01:11;98333.13;;;20.44;42.71
13387;BME280;6763;48.524;9.044;2022-08-07T06:03:38;98324.69;;;20.54;42.64
13387;BME280;6763;48.524;9.044;2022-08-07T06:06:06;98325.84;;;20.66;42.61
13387;BME280;6763;48.524;9.044;2022-08-07T06:08:32;98325.31;;;20.76;42.47
13387;BME280;6763;48.524;9.044;2022-08-07T06:10:58;98325.69;;;20.86;42.35
13387;BME280;6763;48.524;9.044;2022-08-07T06:13:24;98328.91;;;20.91;42.33
13387;BME280;6763;48.524;9.044;2022-08-07T06:15:49;98329.31;;;21.00;42.26
13387;BME280;6763;48.524;9.044;2022-08-07T06:18:16;98320.19;;;21.08;42.41
13387;BME280;6763;48.524;9.044;2022-08-07T06:20:43;98329.41;;;21.16;42.33
13387;BME280;6763;48.524;9.044;2022-08-07T06:23:09;98335.03;;;21.26;42.40
13387;BME280;6763;48.524;9.044;2022-08-07T06:25:35;98321.59;;;21.30;42.23
13387;BME280;6763;48.524;9.044;2022-08-07T06:28:05;98325.28;;;21.43;42.08
13387;BME280;6763;48.524;9.044;2022-08-07T06:30:31;98333.53;;;21.53;41.95
13387;BME280;6763;48.524;9.044;2022-08-07T06:32:57;98323.53;;;21.59;42.02
13387;BME280;6763;48.524;9.044;2022-08-07T06:35:23;98333.56;;;21.69;42.11
13387;BME280;6763;48.524;9.044;2022-08-07T06:37:48;98325.94;;;21.80;42.08
13387;BME280;6763;48.524;9.044;2022-08-07T06:40:14;98324.50;;;21.90;41.83
13387;BME280;6763;48.524;9.044;2022-08-07T06:42:41;98330.22;;;21.98;41.68
13387;BME280;6763;48.524;9.044;2022-08-07T06:45:13;98328.00;;;22.06;41.52
13387;BME280;6763;48.524;9.044;2022-08-07T06:47:39;98319.75;;;22.12;41.33
13387;BME280;6763;48.524;9.044;2022-08-07T06:50:06;98313.09;;;22.20;41.45
13387;BME280;6763;48.524;9.044;2022-08-07T06:52:41;98310.63;;;22.33;41.15
13387;BME280;6763;48.524;9.044;2022-08-07T06:55:08;98318.69;;;22.46;41.25
13387;BME280;6763;48.524;9.044;2022-08-07T06:57:36;98309.81;;;22.62;40.96
13387;BME280;6763;48.524;9.044;2022-08-07T07:00:03;98323.13;;;22.75;40.73
13387;BME280;6763;48.524;9.044;2022-08-07T07:02:30;98319.97;;;22.84;40.42
13387;BME280;6763;48.524;9.044;2022-08-07T07:04:57;98319.50;;;22.92;40.30
13387;BME280;6763;48.524;9.044;2022-08-07T07:07:23;98312.72;;;23.02;40.27
13387;BME280;6763;48.524;9.044;2022-08-07T07:09:49;98315.47;;;23.14;40.14
13387;BME280;6763;48.524;9.044;2022-08-07T07:17:21;98310.22;;;23.57;39.46
13387;BME280;6763;48.524;9.044;2022-08-07T07:19:52;98308.31;;;23.73;39.50
13387;BME280;6763;48.524;9.044;2022-08-07T07:22:20;98304.50;;;23.91;39.38
13387;BME280;6763;48.524;9.044;2022-08-07T07:24:47;98306.94;;;24.08;39.15
13387;BME280;6763;48.524;9.044;2022-08-07T07:27:15;98304.13;;;24.24;38.87
13387;BME280;6763;48.524;9.044;2022-08-07T07:29:48;98303.03;;;24.40;38.48
13387;BME280;6763;48.524;9.044;2022-08-07T07:32:16;98294.81;;;24.57;38.36
13387;BME280;6763;48.524;9.044;2022-08-07T07:34:45;98295.38;;;24.75;38.15
13387;BME280;6763;48.524;9.044;2022-08-07T07:37:12;98287.28;;;24.91;38.08
13387;BME280;6763;48.524;9.044;2022-08-07T07:39:44;98286.13;;;25.07;37.89
13387;BME280;6763;48.524;9.044;2022-08-07T07:42:11;98290.22;;;25.24;38.03
13387;BME280;6763;48.524;9.044;2022-08-07T07:44:41;98284.50;;;25.43;37.38
13387;BME280;6763;48.524;9.044;2022-08-07T07:47:08;98290.25;;;25.62;37.56
13387;BME280;6763;48.524;9.044;2022-08-07T07:49:35;98285.41;;;25.79;36.84
13387;BME280;6763;48.524;9.044;2022-08-07T07:52:02;98282.63;;;25.94;36.50
13387;BME280;6763;48.524;9.044;2022-08-07T07:54:29;98271.81;;;26.08;36.04
13387;BME280;6763;48.524;9.044;2022-08-07T07:56:56;98278.81;;;26.21;35.56
13387;BME280;6763;48.524;9.044;2022-08-07T07:59:24;98278.88;;;26.32;35.33
13387;BME280;6763;48.524;9.044;2022-08-07T08:01:50;98273.94;;;26.39;35.06
13387;BME280;6763;48.524;9.044;2022-08-07T08:04:18;98278.31;;;26.51;34.82
13387;BME280;6763;48.524;9.044;2022-08-07T08:06:46;98269.44;;;26.63;34.49
13387;BME280;6763;48.524;9.044;2022-08-07T08:09:13;98272.00;;;26.76;34.06
13387;BME280;6763;48.524;9.044;2022-08-07T08:11:43;98267.72;;;26.86;33.32
13387;BME280;6763;48.524;9.044;2022-08-07T08:14:10;98265.31;;;26.94;33.52
13387;BME280;6763;48.524;9.044;2022-08-07T08:16:38;98268.09;;;27.03;33.50
13387;BME280;6763;48.524;9.044;2022-08-07T08:19:06;98263.03;;;27.12;33.14
13387;BME280;6763;48.524;9.044;2022-08-07T08:21:36;98264.25;;;27.19;32.16
13387;BME280;6763;48.524;9.044;2022-08-07T08:24:23;98265.97;;;27.20;31.88
13387;BME280;6763;48.524;9.044;2022-08-07T08:27:10;98275.41;;;27.24;32.03
13387;BME280;6763;48.524;9.044;2022-08-07T08:29:51;98264.63;;;27.25;31.38
13387;BME280;6763;48.524;9.044;2022-08-07T08:32:23;98261.97;;;27.25;31.43
13387;BME280;6763;48.524;9.044;2022-08-07T08:34:50;98261.75;;;27.28;31.59
13387;BME280;6763;48.524;9.044;2022-08-07T08:37:18;98266.81;;;27.31;30.91
13387;BME280;6763;48.524;9.044;2022-08-07T08:39:44;98264.03;;;27.33;30.95
13387;BME280;6763;48.524;9.044;2022-08-07T08:44:53;98255.25;;;27.43;30.83
13387;BME280;6763;48.524;9.044;2022-08-07T08:47:42;98255.72;;;27.48;30.41
13387;BME280;6763;48.524;9.044;2022-08-07T08:50:30;98261.88;;;27.60;30.36
13387;BME280;6763;48.524;9.044;2022-08-07T08:53:11;98261.50;;;27.64;30.05
13387;BME280;6763;48.524;9.044;2022-08-07T08:56:03;98255.19;;;27.77;30.04
13387;BME280;6763;48.524;9.044;2022-08-07T08:58:46;98255.25;;;27.97;29.81
13387;BME280;6763;48.524;9.044;2022-08-07T09:01:23;98262.78;;;28.14;29.43
13387;BME280;6763;48.524;9.044;2022-08-07T09:09:58;98260.25;;;28.34;28.30
13387;BME280;6763;48.524;9.044;2022-08-07T09:17:52;98261.78;;;28.47;26.92
13387;BME280;6763;48.524;9.044;2022-08-07T09:23:18;98254.44;;;28.71;26.94
13387;BME280;6763;48.524;9.044;2022-08-07T09:25:55;98251.88;;;28.90;26.71
13387;BME280;6763;48.524;9.044;2022-08-07T09:28:37;98248.63;;;29.08;26.42
13387;BME280;6763;48.524;9.044;2022-08-07T09:31:17;98256.22;;;29.33;26.12
13387;BME280;6763;48.524;9.044;2022-08-07T09:34:07;98252.63;;;29.53;25.55
13387;BME280;6763;48.524;9.044;2022-08-07T09:39:48;98241.84;;;30.23;24.94
13387;BME280;6763;48.524;9.044;2022-08-07T09:42:37;98246.22;;;30.62;24.82
13387;BME280;6763;48.524;9.044;2022-08-07T09:45:11;98236.91;;;30.86;23.71
13387;BME280;6763;48.524;9.044;2022-08-07T09:50:47;98236.63;;;30.89;23.24
13387;BME280;6763;48.524;9.044;2022-08-07T09:53:16;98235.53;;;30.91;22.88
13387;BME280;6763;48.524;9.044;2022-08-07T10:04:50;98215.34;;;31.06;22.81
13387;BME280;6763;48.524;9.044;2022-08-07T10:10:43;98222.09;;;31.47;21.94
13387;BME280;6763;48.524;9.044;2022-08-07T10:30:18;98198.13;;;32.53;19.50
13387;BME280;6763;48.524;9.044;2022-08-07T10:35:49;98201.53;;;32.81;19.41
13387;BME280;6763;48.524;9.044;2022-08-07T10:43:56;98200.25;;;33.52;18.68
13387;BME280;6763;48.524;9.044;2022-08-07T10:46:27;98198.13;;;33.56;17.40
13387;BME280;6763;48.524;9.044;2022-08-07T10:49:22;98191.97;;;33.38;17.28
13387;BME280;6763;48.524;9.044;2022-08-07T10:52:04;98187.66;;;33.45;17.60
13387;BME280;6763;48.524;9.044;2022-08-07T10:54:42;98181.19;;;33.63;17.74
13387;BME280;6763;48.524;9.044;2022-08-07T10:57:31;98180.41;;;33.79;17.13
13387;BME280;6763;48.524;9.044;2022-08-07T11:00:11;98177.06;;;33.93;17.44
13387;BME280;6763;48.524;9.044;2022-08-07T11:02:49;98175.47;;;34.08;16.89
13387;BME280;6763;48.524;9.044;2022-08-07T11:05:40;98180.66;;;34.26;16.32
13387;BME280;6763;48.524;9.044;2022-08-07T11:08:14;98167.22;;;34.34;16.57
13387;BME280;6763;48.524;9.044;2022-08-07T11:13:23;98171.09;;;34.23;16.14
13387;BME280;6763;48.524;9.044;2022-08-07T11:15:53;98168.69;;;34.04;15.85
13387;BME280;6763;48.524;9.044;2022-08-07T11:18:44;98160.94;;;33.77;16.11
13387;BME280;6763;48.524;9.044;2022-08-07T11:24:29;98153.06;;;33.42;16.10
13387;BME280;6763;48.524;9.044;2022-08-07T11:27:24;98148.03;;;33.47;16.43
13387;BME280;6763;48.524;9.044;2022-08-07T11:35:00;98143.34;;;34.07;16.43
13387;BME280;6763;48.524;9.044;2022-08-07T11:40:38;98148.41;;;34.58;16.28
13387;BME280;6763;48.524;9.044;2022-08-07T11:43:23;98136.44;;;34.77;16.09
13387;BME280;6763;48.524;9.044;2022-08-07T11:49:03;98133.41;;;34.88;15.88
13387;BME280;6763;48.524;9.044;2022-08-07T11:55:16;98130.50;;;34.98;15.81
13387;BME280;6763;48.524;9.044;2022-08-07T11:57:32;98128.31;;;35.01;15.86
13387;BME280;6763;48.524;9.044;2022-08-07T12:08:32;98124.91;;;35.15;15.54
13387;BME280;6763;48.524;9.044;2022-08-07T12:11:05;98118.81;;;35.29;15.51
13387;BME280;6763;48.524;9.044;2022-08-07T12:13:41;98118.56;;;35.39;15.57
13387;BME280;6763;48.524;9.044;2022-08-07T12:16:15;98120.88;;;35.50;14.98
13387;BME280;6763;48.524;9.044;2022-08-07T12:18:49;98115.38;;;35.43;15.10
13387;BME280;6763;48.524;9.044;2022-08-07T12:21:25;98115.44;;;35.27;15.17
13387;BME280;6763;48.524;9.044;2022-08-07T12:24:00;98110.56;;;35.23;15.05
13387;BME280;6763;48.524;9.044;2022-08-07T12:29:41;98107.69;;;35.32;15.25
13387;BME280;6763;48.524;9.044;2022-08-07T12:32:22;98095.78;;;35.49;15.03
13387;BME280;6763;48.524;9.044;2022-08-07T12:34:54;98095.97;;;35.56;14.91
13387;BME280;6763;48.524;9.044;2022-08-07T12:37:20;98091.03;;;35.60;14.91
13387;BME280;6763;48.524;9.044;2022-08-07T12:39:48;98102.81;;;35.67;15.05
13387;BME280;6763;48.524;9.044;2022-08-07T12:42:19;98094.47;;;35.76;15.25
13387;BME280;6763;48.524;9.044;2022-08-07T12:44:47;98097.06;;;35.92;15.25
13387;BME280;6763;48.524;9.044;2022-08-07T12:47:32;98091.75;;;36.07;14.93
13387;BME280;6763;48.524;9.044;2022-08-07T12:50:05;98099.34;;;36.26;14.90
13387;BME280;6763;48.524;9.044;2022-08-07T12:52:47;98102.69;;;36.43;14.86
13387;BME280;6763;48.524;9.044;2022-08-07T12:55:26;98089.09;;;36.59;14.50
13387;BME280;6763;48.524;9.044;2022-08-07T12:57:56;98078.59;;;36.64;14.72
13387;BME280;6763;48.524;9.044;2022-08-07T13:00:33;98083.78;;;36.65;14.75
13387;BME280;6763;48.524;9.044;2022-08-07T13:03:18;98089.56;;;36.77;14.77
13387;BME280;6763;48.524;9.044;2022-08-07T13:11:59;98083.88;;;37.16;14.12
13387;BME280;6763;48.524;9.044;2022-08-07T13:14:52;98084.16;;;37.21;14.22
13387;BME280;6763;48.524;9.044;2022-08-07T13:17:38;98069.34;;;37.32;13.75
13387;BME280;6763;48.524;9.044;2022-08-07T13:20:34;98080.19;;;37.17;13.27
13387;BME280;6763;48.524;9.044;2022-08-07T13:23:10;98067.63;;;36.80;13.93
13387;BME280;6763;48.524;9.044;2022-08-07T13:26:00;98069.78;;;36.47;14.05
13387;BME280;6763;48.524;9.044;2022-08-07T13:28:31;98077.31;;;36.37;14.42
13387;BME280;6763;48.524;9.044;2022-08-07T13:31:03;98073.78;;;36.37;14.26
13387;BME280;6763;48.524;9.044;2022-08-07T13:33:37;98069.56;;;36.57;14.48
13387;BME280;6763;48.524;9.044;2022-08-07T13:36:29;98067.41;;;36.82;13.93
13387;BME280;6763;48.524;9.044;2022-08-07T13:39:16;98066.41;;;36.97;14.36
13387;BME280;6763;48.524;9.044;2022-08-07T13:41:49;98060.81;;;37.13;13.93
13387;BME280;6763;48.524;9.044;2022-08-07T13:44:23;98060.13;;;37.26;14.18
13387;BME280;6763;48.524;9.044;2022-08-07T13:46:51;98056.47;;;37.34;13.99
13387;BME280;6763;48.524;9.044;2022-08-07T13:49:21;98053.78;;;37.34;14.16
13387;BME280;6763;48.524;9.044;2022-08-07T13:51:48;98050.66;;;37.15;13.57
13387;BME280;6763;48.524;9.044;2022-08-07T13:54:15;98049.16;;;36.84;14.08
13387;BME280;6763;48.524;9.044;2022-08-07T13:56:42;98039.88;;;36.57;14.24
13387;BME280;6763;48.524;9.044;2022-08-07T13:59:20;98039.00;;;36.42;14.68
13387;BME280;6763;48.524;9.044;2022-08-07T14:02:08;98037.56;;;36.54;14.60
13387;BME280;6763;48.524;9.044;2022-08-07T14:07:08;98047.41;;;36.91;14.12
13387;BME280;6763;48.524;9.044;2022-08-07T14:09:36;98034.09;;;36.75;13.97
13387;BME280;6763;48.524;9.044;2022-08-07T14:12:06;98030.47;;;36.53;14.14
13387;BME280;6763;48.524;9.044;2022-08-07T14:14:45;98029.97;;;36.20;14.43
13387;BME280;6763;48.524;9.044;2022-08-07T14:17:13;98025.03;;;36.24;14.78
13387;BME280;6763;48.524;9.044;2022-08-07T14:19:44;98028.38;;;36.26;14.48
13387;BME280;6763;48.524;9.044;2022-08-07T14:22:16;98028.03;;;36.29;14.53
13387;BME280;6763;48.524;9.044;2022-08-07T14:24:48;98023.84;;;36.41;14.50
13387;BME280;6763;48.524;9.044;2022-08-07T14:27:15;98018.16;;;36.21;14.20
13387;BME280;6763;48.524;9.044;2022-08-07T14:29:52;98018.59;;;36.10;14.72
13387;BME280;6763;48.524;9.044;2022-08-07T14:32:19;98016.22;;;35.92;14.70
13387;BME280;6763;48.524;9.044;2022-08-07T14:34:46;98017.00;;;35.78;15.07
13387;BME280;6763;48.524;9.044;2022-08-07T14:37:15;98013.50;;;35.47;15.52
13387;BME280;6763;48.524;9.044;2022-08-07T14:39:43;98010.78;;;34.94;16.08
13387;BME280;6763;48.524;9.044;2022-08-07T14:42:10;98012.59;;;34.62;16.34
13387;BME280;6763;48.524;9.044;2022-08-07T14:44:48;98007.34;;;34.69;16.11
13387;BME280;6763;48.524;9.044;2022-08-07T14:47:17;98012.75;;;34.61;16.78
13387;BME280;6763;48.524;9.044;2022-08-07T14:49:43;98016.06;;;34.71;16.26
13387;BME280;6763;48.524;9.044;2022-08-07T14:52:10;98007.91;;;34.95;16.17
13387;BME280;6763;48.524;9.044;2022-08-07T14:54:37;98002.63;;;34.71;16.10
13387;BME280;6763;48.524;9.044;2022-08-07T14:57:05;98004.22;;;34.57;16.59
13387;BME280;6763;48.524;9.044;2022-08-07T14:59:35;98000.16;;;34.61;16.66
13387;BME280;6763;48.524;9.044;2022-08-07T15:02:15;97997.38;;;34.85;16.93
13387;BME280;6763;48.524;9.044;2022-08-07T15:04:43;97994.41;;;35.34;16.23
13387;BME280;6763;48.524;9.044;2022-08-07T15:07:10;97997.22;;;35.86;15.91
13387;BME280;6763;48.524;9.044;2022-08-07T15:09:39;97998.72;;;36.40;15.48
13387;BME280;6763;48.524;9.044;2022-08-07T15:12:10;97994.53;;;36.82;14.92
13387;BME280;6763;48.524;9.044;2022-08-07T15:14:40;97999.28;;;37.09;14.88
13387;BME280;6763;48.524;9.044;2022-08-07T15:17:14;97999.88;;;37.25;14.60